createdAt,value
2019-06-26T05:52:35.620Z,36.60
2019-06-26T05:55:09.523Z,36.90
2019-06-26T05:57:43.004Z,37.10
2019-06-26T06:00:16.533Z,37.40
2019-06-26T06:02:49.829Z,37.70
2019-06-26T06:05:23.484Z,38.00
2019-06-26T06:07:56.921Z,38.30
2019-06-26T06:10:30.292Z,38.50
2019-06-26T06:13:03.559Z,38.40
2019-06-26T06:15:36.676Z,38.80
2019-06-26T06:18:09.948Z,39.00
2019-06-26T06:20:43.543Z,38.90
2019-06-26T06:23:18.314Z,38.60
2019-06-26T06:25:51.573Z,38.30
2019-06-26T06:28:24.935Z,38.50
2019-06-26T06:30:58.128Z,38.60
2019-06-26T06:33:31.425Z,38.70
2019-06-26T06:36:04.537Z,38.90
2019-06-26T06:38:37.910Z,38.90
2019-06-26T06:41:10.916Z,38.70
2019-06-26T06:43:44.373Z,39.00
2019-06-26T06:46:17.842Z,39.50
2019-06-26T06:48:51.114Z,40.00
2019-06-26T06:51:24.396Z,40.70
2019-06-26T06:53:57.799Z,41.20
2019-06-26T06:56:30.799Z,41.70
2019-06-26T06:59:04.248Z,42.00
2019-06-26T07:01:37.671Z,42.60
2019-06-26T07:04:13.804Z,43.00
2019-06-26T07:06:47.065Z,43.10
2019-06-26T07:09:42.831Z,43.70
2019-06-26T07:12:16.408Z,43.70
2019-06-26T07:14:50.941Z,43.50
2019-06-26T07:17:24.605Z,43.70
2019-06-26T07:20:00.995Z,44.00
2019-06-26T07:22:34.953Z,43.90
2019-06-26T07:25:09.758Z,44.20
2019-06-26T07:27:42.943Z,44.20
2019-06-26T07:30:16.593Z,44.50
2019-06-26T07:32:49.912Z,44.30
2019-06-26T07:35:23.005Z,44.20
2019-06-26T07:37:59.884Z,44.40
2019-06-26T07:40:31.285Z,45.00
2019-06-26T07:43:05.213Z,45.50
2019-06-26T07:45:38.532Z,45.00
2019-06-26T07:48:11.845Z,44.20
2019-06-26T07:50:45.257Z,44.40
2019-06-26T07:53:18.531Z,44.00
2019-06-26T07:55:51.829Z,44.60
2019-06-26T07:58:25.025Z,45.10
2019-06-26T08:00:58.423Z,45.20
2019-06-26T08:03:31.851Z,45.60
2019-06-26T08:06:05.310Z,46.10
2019-06-26T08:08:38.603Z,46.30
2019-06-26T08:11:12.086Z,46.30
2019-06-26T08:13:46.215Z,46.10
2019-06-26T08:16:19.971Z,46.30
2019-06-26T08:18:53.672Z,46.30
2019-06-26T08:21:30.562Z,45.80
2019-06-26T08:24:09.289Z,45.70
2019-06-26T08:26:44.074Z,45.40
2019-06-26T08:29:17.355Z,45.20
2019-06-26T08:31:50.628Z,45.00
2019-06-26T08:34:23.879Z,44.70
2019-06-26T08:36:57.008Z,44.10
2019-06-26T08:39:30.260Z,44.20
2019-06-26T08:42:03.643Z,43.90
2019-06-26T08:44:36.954Z,44.40
2019-06-26T08:47:11.466Z,44.30
2019-06-26T08:49:44.774Z,43.60
2019-06-26T08:52:18.914Z,42.80
2019-06-26T08:54:51.944Z,42.50
2019-06-26T08:57:25.207Z,42.10
2019-06-26T08:59:58.727Z,41.70
2019-06-26T09:02:32.105Z,41.50
2019-06-26T09:05:07.794Z,41.10
2019-06-26T09:07:41.611Z,40.80
2019-06-26T09:10:15.718Z,40.60
2019-06-26T09:12:49.205Z,40.20
2019-06-26T09:15:22.380Z,40.20
2019-06-26T09:17:55.741Z,40.00
2019-06-26T09:20:42.312Z,39.80
2019-06-26T09:23:17.964Z,39.70
2019-06-26T09:25:51.468Z,39.40
2019-06-26T09:28:24.838Z,39.30
2019-06-26T09:30:58.137Z,39.20
2019-06-26T09:33:32.412Z,39.10
2019-06-26T09:36:07.012Z,38.90
2019-06-26T09:38:40.588Z,38.80
2019-06-26T09:41:13.912Z,38.60
2019-06-26T09:43:47.298Z,38.40
2019-06-26T09:46:20.548Z,38.40
2019-06-26T09:48:53.772Z,38.40
2019-06-26T09:51:27.239Z,38.30
2019-06-26T09:54:00.756Z,38.20
2019-06-26T09:56:35.949Z,38.20
2019-06-26T09:59:10.636Z,38.00
2019-06-26T10:01:44.142Z,37.90
2019-06-26T10:04:17.481Z,37.80
2019-06-26T10:06:50.973Z,37.70
2019-06-26T10:09:23.935Z,37.60
2019-06-26T10:11:57.193Z,37.50
2019-06-26T10:14:46.623Z,37.40
2019-06-26T10:17:05.507Z,37.40
2019-06-26T10:19:38.978Z,37.30
2019-06-26T10:22:12.400Z,37.20
2019-06-26T10:24:45.770Z,37.20
2019-06-26T10:27:19.131Z,37.10
2019-06-26T10:29:52.517Z,37.10
2019-06-26T10:32:25.797Z,37.00
2019-06-26T10:34:58.841Z,37.00
2019-06-26T10:37:32.441Z,36.90
2019-06-26T10:40:11.503Z,36.80
2019-06-26T10:42:45.246Z,36.80
2019-06-26T10:45:38.643Z,36.70
2019-06-26T10:48:10.553Z,36.70
2019-06-26T10:50:51.188Z,36.50
2019-06-26T10:53:19.721Z,36.50
2019-06-26T10:55:54.578Z,36.40
2019-06-26T10:58:28.018Z,36.30
2019-06-26T11:01:04.407Z,36.30
2019-06-26T11:03:37.754Z,36.20
2019-06-26T11:06:11.136Z,36.10
2019-06-26T11:08:44.514Z,36.10
2019-06-26T11:11:18.181Z,36.00
2019-06-26T11:13:51.494Z,36.00
2019-06-26T11:16:24.843Z,35.90
2019-06-26T11:18:58.235Z,35.90
2019-06-26T11:21:31.548Z,35.90
2019-06-26T11:24:04.975Z,35.80
2019-06-26T11:26:38.426Z,35.80
2019-06-26T11:29:11.709Z,35.70
2019-06-26T11:31:45.135Z,35.70
2019-06-26T11:34:18.576Z,35.60
2019-06-26T11:37:02.997Z,35.60
2019-06-26T11:39:26.747Z,35.60
2019-06-26T11:41:59.993Z,35.50
2019-06-26T11:44:33.460Z,35.50
2019-06-26T11:47:07.150Z,35.40
2019-06-26T11:49:40.457Z,35.40
2019-06-26T11:52:13.746Z,35.40
2019-06-26T11:55:01.402Z,35.40
2019-06-26T11:57:23.432Z,35.30
2019-06-26T11:59:56.894Z,35.30
2019-06-26T12:02:30.146Z,35.30
2019-06-26T12:05:03.449Z,35.30
2019-06-26T12:07:36.723Z,35.20
2019-06-26T12:10:10.725Z,35.20
2019-06-26T12:12:44.142Z,35.20
2019-06-26T12:15:19.570Z,35.20
2019-06-26T12:17:52.833Z,35.20
2019-06-26T12:20:26.550Z,35.20
2019-06-26T12:22:59.925Z,35.20
2019-06-26T12:25:33.105Z,35.20
2019-06-26T12:28:06.379Z,35.20
2019-06-26T12:30:39.828Z,35.20
2019-06-26T12:33:13.264Z,35.10
2019-06-26T12:35:47.438Z,35.10
2019-06-26T12:38:22.229Z,35.00
2019-06-26T12:40:55.697Z,34.90
2019-06-26T12:43:30.074Z,34.90
2019-06-26T12:46:05.101Z,34.80
2019-06-26T12:48:38.589Z,34.80
2019-06-26T12:51:11.882Z,34.80
2019-06-26T12:53:45.570Z,34.70
2019-06-26T12:56:18.767Z,34.70
2019-06-26T12:58:52.298Z,34.60
2019-06-26T13:01:27.077Z,34.60
2019-06-26T13:04:00.781Z,34.50
2019-06-26T13:06:34.404Z,34.40
2019-06-26T13:09:09.431Z,34.50
2019-06-26T13:11:42.786Z,34.50
2019-06-26T13:14:16.071Z,34.50
2019-06-26T13:16:49.324Z,34.50
2019-06-26T13:19:22.657Z,34.50
2019-06-26T13:21:55.961Z,34.50
2019-06-26T13:24:29.318Z,34.40
2019-06-26T13:27:02.663Z,34.40
2019-06-26T13:29:36.188Z,34.40
2019-06-26T13:32:09.481Z,34.30
2019-06-26T13:34:43.565Z,34.20
2019-06-26T13:37:17.053Z,34.10
2019-06-26T13:39:58.720Z,34.00
2019-06-26T13:42:32.948Z,33.90
2019-06-26T13:45:10.925Z,33.90
2019-06-26T13:47:46.118Z,33.70
2019-06-26T13:50:21.549Z,33.70
2019-06-26T13:52:58.244Z,33.60
2019-06-26T13:55:31.688Z,33.50
2019-06-26T13:58:05.042Z,33.50
2019-06-26T14:00:38.471Z,33.40
2019-06-26T14:03:12.040Z,33.40
2019-06-26T14:05:45.246Z,33.40
2019-06-26T14:08:18.587Z,33.30
2019-06-26T14:10:51.905Z,33.30
2019-06-26T14:13:25.352Z,33.30
2019-06-26T14:15:58.803Z,33.10
2019-06-26T14:18:32.109Z,33.10
2019-06-26T14:21:05.388Z,33.10
2019-06-26T14:23:38.877Z,32.90
2019-06-26T14:26:12.183Z,32.80
2019-06-26T14:28:45.503Z,32.70
2019-06-26T14:31:19.410Z,32.60
2019-06-26T14:33:54.008Z,32.60
2019-06-26T14:36:37.608Z,32.50
2019-06-26T14:39:11.213Z,32.40
2019-06-26T14:41:44.524Z,32.40
2019-06-26T14:44:17.843Z,32.40
2019-06-26T14:46:51.100Z,32.20
2019-06-26T14:49:24.434Z,32.20
2019-06-26T14:51:57.709Z,32.20
2019-06-26T14:54:30.929Z,32.20
2019-06-26T14:57:04.229Z,32.10
2019-06-26T14:59:37.502Z,32.10
2019-06-26T15:02:11.349Z,32.10
2019-06-26T15:04:46.142Z,32.10
2019-06-26T15:07:20.669Z,32.10
2019-06-26T15:09:53.995Z,32.00
2019-06-26T15:12:27.458Z,31.90
2019-06-26T15:15:02.967Z,32.00
2019-06-26T15:17:36.333Z,32.00
2019-06-26T15:20:11.379Z,31.80
2019-06-26T15:22:44.905Z,31.80
2019-06-26T15:25:18.425Z,31.50
2019-06-26T15:27:52.338Z,31.60
2019-06-26T15:30:26.287Z,31.50
2019-06-26T15:32:59.623Z,31.50
2019-06-26T15:35:33.228Z,31.40
2019-06-26T15:38:06.701Z,31.20
2019-06-26T15:40:40.013Z,31.10
2019-06-26T15:43:13.373Z,31.10
2019-06-26T15:45:46.770Z,31.10
2019-06-26T15:48:21.237Z,31.20
2019-06-26T15:50:54.592Z,31.20
2019-06-26T15:53:29.259Z,31.20
2019-06-26T15:56:02.654Z,31.10
2019-06-26T15:58:36.004Z,31.20
2019-06-26T16:01:09.295Z,31.10
2019-06-26T16:03:42.803Z,31.00
2019-06-26T16:06:16.218Z,31.00
2019-06-26T16:08:49.502Z,31.00
2019-06-26T16:11:22.846Z,31.00
2019-06-26T16:13:56.168Z,31.00
2019-06-26T16:16:29.392Z,31.00
2019-06-26T16:19:04.054Z,31.00
2019-06-26T16:21:37.162Z,31.10
2019-06-26T16:24:10.578Z,31.20
2019-06-26T16:26:43.812Z,31.30
2019-06-26T16:29:17.147Z,31.20
2019-06-26T16:31:50.497Z,31.20
2019-06-26T16:34:23.729Z,31.20
2019-06-26T16:36:57.121Z,31.00
2019-06-26T16:39:30.344Z,30.90
2019-06-26T16:42:03.651Z,31.10
2019-06-26T16:44:36.960Z,31.40
2019-06-26T16:47:10.051Z,31.40
2019-06-26T16:49:43.360Z,31.40
2019-06-26T16:52:17.654Z,31.40
2019-06-26T16:54:52.262Z,31.40
2019-06-26T16:57:25.537Z,31.40
2019-06-26T17:00:08.762Z,31.40
2019-06-26T17:02:33.975Z,31.50
2019-06-26T17:05:08.033Z,31.40
2019-06-26T17:07:41.374Z,31.40
2019-06-26T17:10:15.404Z,31.50
2019-06-26T17:12:48.699Z,31.40
2019-06-26T17:15:22.154Z,31.40
2019-06-26T17:17:55.420Z,31.40
2019-06-26T17:20:35.141Z,31.40
2019-06-26T17:23:09.696Z,31.30
2019-06-26T17:25:43.147Z,31.20
2019-06-26T17:28:16.486Z,31.30
2019-06-26T17:30:52.781Z,31.30
2019-06-26T17:33:25.365Z,31.40
2019-06-26T17:35:58.718Z,31.30
2019-06-26T17:38:32.366Z,31.40
2019-06-26T17:41:05.712Z,31.50
2019-06-26T17:43:39.054Z,31.50
2019-06-26T17:46:12.428Z,31.50
2019-06-26T17:48:45.718Z,31.50
2019-06-26T17:51:18.983Z,31.50
2019-06-26T17:53:52.305Z,31.50
2019-06-26T17:56:25.594Z,31.50
2019-06-26T17:58:58.877Z,31.50
2019-06-26T18:01:32.110Z,31.50
2019-06-26T18:04:06.155Z,31.50
2019-06-26T18:06:41.732Z,31.50
2019-06-26T18:09:14.947Z,31.50
2019-06-26T18:11:48.259Z,31.50
2019-06-26T18:14:21.693Z,31.50
2019-06-26T18:16:54.915Z,31.50
2019-06-26T18:19:31.239Z,31.60
2019-06-26T18:22:25.271Z,31.50
2019-06-26T18:25:02.609Z,31.50
2019-06-26T18:27:41.699Z,31.50
2019-06-26T18:30:39.464Z,31.50
2019-06-26T18:33:16.875Z,31.50
2019-06-26T18:35:50.136Z,31.50
2019-06-26T18:38:23.424Z,31.50
2019-06-26T18:40:56.774Z,31.40
2019-06-26T18:43:30.128Z,31.50
2019-06-26T18:46:03.453Z,31.50
2019-06-26T18:48:36.735Z,31.40
2019-06-26T18:51:10.204Z,31.30
2019-06-26T18:53:53.142Z,31.30
2019-06-26T18:56:18.160Z,31.20
2019-06-26T18:58:51.526Z,31.20
2019-06-26T19:01:24.821Z,31.10
2019-06-26T19:03:58.302Z,31.10
2019-06-26T19:06:31.563Z,31.00
2019-06-26T19:09:10.171Z,30.90
2019-06-26T19:11:48.293Z,31.00
2019-06-26T19:14:21.730Z,31.00
2019-06-26T19:16:55.074Z,31.10
2019-06-26T19:19:28.320Z,31.10
2019-06-26T19:22:01.814Z,31.10
2019-06-26T19:24:35.133Z,31.00
2019-06-26T19:27:08.457Z,31.00
2019-06-26T19:29:41.768Z,31.00
2019-06-26T19:32:15.200Z,30.90
2019-06-26T19:34:48.509Z,30.90
2019-06-26T19:37:21.826Z,31.00
2019-06-26T19:39:55.294Z,31.00
2019-06-26T19:42:28.616Z,31.00
2019-06-26T19:45:02.031Z,30.90
2019-06-26T19:47:36.469Z,30.90
2019-06-26T19:50:10.661Z,30.90
2019-06-26T19:52:43.827Z,30.90
2019-06-26T19:55:17.336Z,30.90
2019-06-26T19:57:50.706Z,30.90
2019-06-26T20:00:24.249Z,30.80
2019-06-26T20:02:57.364Z,30.80
2019-06-26T20:05:30.615Z,30.80
2019-06-26T20:08:04.099Z,30.80
2019-06-26T20:10:37.463Z,30.70
2019-06-26T20:13:10.710Z,30.70
2019-06-26T20:15:43.999Z,30.70
2019-06-26T20:18:17.476Z,30.60
2019-06-26T20:20:50.889Z,30.60
2019-06-26T20:23:24.280Z,30.60
2019-06-26T20:25:57.604Z,30.60
2019-06-26T20:28:31.009Z,30.60
2019-06-26T20:31:04.539Z,30.50
2019-06-26T20:33:37.922Z,30.50
2019-06-26T20:36:11.537Z,30.60
2019-06-26T20:38:44.860Z,30.50
2019-06-26T20:41:18.220Z,30.50
2019-06-26T20:43:51.643Z,30.60
2019-06-26T20:46:25.904Z,30.60
2019-06-26T20:48:59.419Z,30.50
2019-06-26T20:51:32.850Z,30.60
2019-06-26T20:54:06.092Z,30.50
2019-06-26T20:56:39.427Z,30.40
2019-06-26T20:59:12.766Z,30.40
2019-06-26T21:01:50.846Z,30.40
2019-06-26T21:04:25.370Z,30.40
2019-06-26T21:07:00.214Z,30.40
2019-06-26T21:09:42.179Z,30.40
2019-06-26T21:12:22.748Z,30.50
2019-06-26T21:14:56.295Z,30.40
2019-06-26T21:17:29.908Z,30.40
2019-06-26T21:20:03.218Z,30.50
2019-06-26T21:22:36.553Z,30.40
2019-06-26T21:25:18.514Z,30.40
2019-06-26T21:27:45.027Z,30.50
2019-06-26T21:30:18.496Z,30.30
2019-06-26T21:32:51.745Z,30.30
2019-06-26T21:35:25.218Z,30.30
2019-06-26T21:37:58.819Z,30.30
2019-06-26T21:40:32.199Z,30.30
2019-06-26T21:43:05.458Z,30.20
2019-06-26T21:45:38.912Z,30.20
2019-06-26T21:48:12.245Z,30.20
2019-06-26T21:50:45.514Z,30.20
2019-06-26T21:53:45.290Z,30.20
2019-06-26T21:56:35.735Z,30.30
2019-06-26T21:59:26.575Z,30.30
2019-06-26T22:02:17.408Z,30.30
2019-06-26T22:04:52.420Z,30.40
2019-06-26T22:07:38.466Z,30.40
2019-06-26T22:10:31.387Z,30.40
2019-06-26T22:13:04.773Z,30.30
2019-06-26T22:15:38.136Z,30.20
2019-06-26T22:18:11.684Z,30.30
2019-06-26T22:20:45.060Z,30.40
2019-06-26T22:23:18.423Z,30.40
2019-06-26T22:25:51.724Z,30.30
2019-06-26T22:28:25.252Z,30.40
2019-06-26T22:30:58.655Z,30.40
2019-06-26T22:33:32.030Z,30.40
2019-06-26T22:36:05.299Z,30.40
2019-06-26T22:38:38.736Z,30.50
2019-06-26T22:41:11.996Z,30.40
2019-06-26T22:43:45.294Z,30.50
2019-06-26T22:46:26.656Z,30.50
2019-06-26T22:49:03.480Z,30.50
2019-06-26T22:51:36.790Z,30.50
2019-06-26T22:54:10.144Z,30.60
2019-06-26T22:56:44.477Z,30.60
2019-06-26T22:59:17.782Z,30.70
2019-06-26T23:01:51.157Z,30.70
2019-06-26T23:04:24.451Z,30.60
2019-06-26T23:06:57.817Z,30.70
2019-06-26T23:09:31.056Z,30.80
2019-06-26T23:12:04.384Z,30.80
2019-06-26T23:14:37.761Z,30.80
2019-06-26T23:17:11.223Z,30.90
2019-06-26T23:20:12.125Z,30.90
2019-06-26T23:22:45.407Z,31.00
2019-06-26T23:25:18.725Z,31.00
2019-06-26T23:27:52.121Z,31.00
2019-06-26T23:30:25.461Z,31.10
2019-06-26T23:32:58.807Z,31.10
2019-06-26T23:35:32.272Z,31.10
2019-06-26T23:38:05.539Z,31.10
2019-06-26T23:40:50.998Z,31.20
2019-06-26T23:43:24.545Z,31.30
2019-06-26T23:45:58.123Z,31.40
2019-06-26T23:48:31.479Z,31.40
2019-06-26T23:51:04.736Z,31.50
2019-06-26T23:53:38.420Z,31.60
2019-06-26T23:56:12.020Z,31.60
2019-06-26T23:58:45.357Z,31.70
